LWSK Airport Information

Runway Information
Runway 16 Length 8038 ft width 140 ft
Elevation 781 ft Threshold 0 ft Heading 165
Runway 34 Length 8038 ft Width 140 ft
Elevation 768 ft Threshold 0 ft Heading 345
Airport Frequencies
Type APP Name APP Frequency 120.3 MHZ
Type ATIS Name ATIS Frequency 130.125 MHZ
Type TWR Name TWR Frequency 118.5 MHZ
Airport Navaids
Type NDB Name Skopje Frequency 442 KHZ
Type VOR-DME Name Sinko Frequency 111450 KHZ
Type VOR-DME Name Skopje Frequency 112800 KHZ
Airport Weather Information & NOTAM
ADDS - METARS form results

(0250 UTC 05 December 2021)
Data provider http://aviationweather.gov/metar/data/
 
Forecast for: LWSK (SKOPJE/PETROVAC , MK)
Text: TAF LWSK 050230Z 0503/0603 VRB02KT 9999 BKN020
Forecast period: 0300 to 0900 UTC 05 December 2021
Forecast type: FROM: standard forecast or significant change
Winds: variable direction winds at 2 MPH (2 knots; 1.0 m/s)
Visibility: 6 or more miles (10+ km)
Ceiling: 2000 feet AGL
Clouds: broken clouds at 2000 feet AGL
Weather: no significant weather forecast for this period
Text: BECMG 0509/0512 17010KT SCT040
Forecast period: 0900 UTC 05 December 2021 to 0300 UTC 06 December 2021
Forecast type: BECOMING: Conditions expected to become as follows by 1200 UTC 05 December 2021
Winds: from the S (170 degrees) at 12 MPH (10 knots; 5.1 m/s)
Visibility: 6 or more miles (10+ km)
Ceiling: at least 12,000 feet AGL
Clouds: scattered clouds at 4000 feet AGL
Weather: no significant weather forecast for this period